Time;durP1;ratioP1;P1;durP2;ratioP2;P2;SDS_P1;SDS_P2;PMS_P1;PMS_P2;Temp;Humidity;BMP_temperature;BMP_pressure;BME280_temperature;BME280_humidity;BME280_pressure;Samples;Min_cycle;Max_cycle;Signal;HPM_P1;HPM_P2
2021/03/05 00:01:18;;;;;;;25.85;14.65;;;12.10;99.90;;;;;;5093563;28;20111;-82
2021/03/05 00:03:44;;;;;;;27.85;14.88;;;12.10;99.90;;;;;;5074228;28;20044;-82
2021/03/05 00:06:10;;;;;;;22.85;14.43;;;12.10;99.90;;;;;;5092814;28;20027;-82
2021/03/05 00:08:35;;;;;;;29.67;14.77;;;12.00;99.90;;;;;;5093126;28;20023;-82
2021/03/05 00:11:01;;;;;;;25.17;15.88;;;12.10;99.90;;;;;;5092889;28;20028;-82
2021/03/05 00:13:28;;;;;;;32.72;15.73;;;11.90;99.90;;;;;;5093551;28;20008;-82
2021/03/05 00:15:54;;;;;;;32.53;15.20;;;12.00;99.90;;;;;;5093564;28;20028;-82
2021/03/05 00:18:20;;;;;;;29.02;15.35;;;11.90;99.90;;;;;;5093058;28;20027;-82
2021/03/05 00:20:49;;;;;;;25.17;15.10;;;11.90;99.90;;;;;;5093178;28;20036;-82
2021/03/05 00:23:15;;;;;;;36.75;16.77;;;12.00;99.90;;;;;;5087356;28;20592;-82
2021/03/05 00:25:41;;;;;;;31.10;15.80;;;12.00;99.90;;;;;;5073102;28;20107;-82
2021/03/05 00:28:07;;;;;;;32.45;15.25;;;12.00;99.90;;;;;;5073118;28;20100;-82
2021/03/05 00:30:35;;;;;;;28.33;14.00;;;12.00;99.90;;;;;;5090044;28;20028;-82
2021/03/05 00:33:05;;;;;;;24.92;14.38;;;12.00;99.90;;;;;;5074799;28;20020;-82
2021/03/05 00:35:31;;;;;;;28.25;13.75;;;11.90;99.90;;;;;;5092012;28;20494;-82
2021/03/05 00:37:56;;;;;;;29.45;14.60;;;12.00;99.90;;;;;;5092479;28;20016;-82
2021/03/05 00:40:24;;;;;;;29.20;14.00;;;11.90;99.90;;;;;;5092365;28;20384;-82
2021/03/05 00:42:50;;;;;;;30.55;14.93;;;11.90;99.90;;;;;;5092426;28;20095;-82
2021/03/05 00:45:19;;;;;;;29.70;14.68;;;12.00;99.90;;;;;;5085610;28;20032;-82
2021/03/05 00:47:45;;;;;;;26.90;14.35;;;12.00;99.90;;;;;;5071945;28;20025;-82
2021/03/05 00:50:12;;;;;;;32.25;15.18;;;12.10;99.90;;;;;;5071728;28;20108;-82
2021/03/05 00:52:38;;;;;;;26.02;14.80;;;12.00;99.90;;;;;;5072399;28;20031;-82
2021/03/05 00:55:06;;;;;;;31.75;14.82;;;11.90;99.90;;;;;;5091223;28;20107;-82
2021/03/05 00:57:32;;;;;;;31.30;14.30;;;11.90;99.90;;;;;;5092330;28;20491;-82
2021/03/05 00:59:58;;;;;;;27.10;14.43;;;12.00;99.90;;;;;;5092123;28;20055;-82
2021/03/05 01:02:23;;;;;;;26.92;13.90;;;11.90;99.90;;;;;;5091723;28;20051;-82
2021/03/05 01:04:49;;;;;;;24.90;13.82;;;11.90;99.90;;;;;;5091814;28;20063;-82
2021/03/05 01:07:15;;;;;;;33.50;14.52;;;11.90;99.90;;;;;;5091965;28;20027;-82
2021/03/05 01:09:41;;;;;;;32.55;14.27;;;11.80;99.90;;;;;;5091772;28;20497;-82
2021/03/05 01:12:07;;;;;;;27.35;14.95;;;11.70;99.90;;;;;;5091957;28;20085;-82
2021/03/05 01:14:33;;;;;;;32.22;14.95;;;11.60;99.90;;;;;;5092038;28;20030;-82
2021/03/05 01:16:58;;;;;;;25.35;14.05;;;11.60;99.90;;;;;;5091982;28;20012;-82
2021/03/05 01:19:27;;;;;;;24.90;14.50;;;11.60;99.90;;;;;;5091295;28;20028;-82
2021/03/05 01:21:53;;;;;;;27.48;13.65;;;11.60;99.90;;;;;;5092199;28;20028;-82
2021/03/05 01:24:19;;;;;;;27.20;14.13;;;11.60;99.90;;;;;;5088106;28;20030;-82
2021/03/05 01:26:45;;;;;;;29.60;14.43;;;11.60;99.90;;;;;;5091280;28;20107;-82
2021/03/05 01:29:10;;;;;;;28.40;14.35;;;11.60;99.90;;;;;;5091937;28;20079;-82
2021/03/05 01:31:36;;;;;;;26.33;13.75;;;11.50;99.90;;;;;;5091554;28;20027;-82
2021/03/05 01:34:05;;;;;;;26.52;13.93;;;11.50;99.90;;;;;;5091002;28;20089;-82
2021/03/05 01:36:31;;;;;;;24.77;13.70;;;11.40;99.90;;;;;;5091439;28;20015;-82
2021/03/05 01:38:56;;;;;;;30.40;13.73;;;11.50;99.90;;;;;;5092287;28;20028;-81
2021/03/05 01:41:22;;;;;;;27.50;13.05;;;11.40;99.90;;;;;;5073972;28;20024;-81
2021/03/05 01:43:48;;;;;;;26.33;13.73;;;11.40;99.90;;;;;;5091560;28;20032;-81
2021/03/05 01:46:15;;;;;;;29.23;14.10;;;11.50;99.90;;;;;;5091807;28;20099;-81
2021/03/05 01:48:41;;;;;;;28.17;13.80;;;11.40;99.90;;;;;;5091867;28;20028;-81
2021/03/05 01:51:16;;;;;;;27.92;14.00;;;11.30;99.90;;;;;;5091813;28;20531;-81
2021/03/05 01:53:44;;;;;;;29.98;14.23;;;11.30;99.90;;;;;;5091904;28;20069;-82
2021/03/05 01:56:28;;;;;;;28.98;13.73;;;11.30;99.90;;;;;;5091812;28;20012;-82
2021/03/05 01:58:54;;;;;;;26.52;14.45;;;11.40;99.90;;;;;;5093668;28;20023;-82
2021/03/05 02:01:20;;;;;;;26.65;13.65;;;11.50;99.90;;;;;;5095096;28;20016;-82
2021/03/05 02:03:46;;;;;;;25.88;13.40;;;11.30;99.90;;;;;;5094708;28;20138;-82
2021/03/05 02:06:13;;;;;;;26.08;13.43;;;11.40;99.90;;;;;;5095288;28;20388;-82
2021/03/05 02:08:38;;;;;;;33.47;13.70;;;11.40;99.90;;;;;;5088449;28;20043;-82
2021/03/05 02:11:04;;;;;;;26.65;14.68;;;11.30;99.90;;;;;;5084799;28;20024;-82
2021/03/05 02:13:30;;;;;;;24.08;13.63;;;11.30;99.90;;;;;;5094503;28;20028;-82
2021/03/05 02:15:57;;;;;;;28.83;15.05;;;11.10;99.90;;;;;;5095001;28;20487;-82
2021/03/05 02:18:50;;;;;;;27.23;14.18;;;11.10;99.90;;;;;;5094856;28;20112;-82
2021/03/05 02:21:50;;;;;;;30.27;15.65;;;11.10;99.90;;;;;;5082118;28;20021;-82
2021/03/05 02:24:38;;;;;;;27.58;16.65;;;11.10;99.90;;;;;;5086742;28;20031;-82
2021/03/05 02:27:12;;;;;;;27.17;14.70;;;11.00;99.90;;;;;;5086716;28;20020;-82
2021/03/05 02:29:53;;;;;;;28.45;14.57;;;11.10;99.90;;;;;;5074553;28;20024;-82
2021/03/05 02:32:29;;;;;;;26.42;14.45;;;11.00;99.90;;;;;;5074390;28;20060;-82
2021/03/05 02:34:55;;;;;;;27.80;14.85;;;11.00;99.90;;;;;;5074389;28;20020;-82
2021/03/05 02:37:23;;;;;;;26.40;15.05;;;11.00;99.90;;;;;;5091388;28;20502;-82
2021/03/05 02:40:00;;;;;;;30.60;14.75;;;10.90;99.90;;;;;;5094506;28;20378;-82
2021/03/05 02:42:31;;;;;;;30.35;15.18;;;10.90;99.90;;;;;;5074173;28;20027;-82
2021/03/05 02:45:00;;;;;;;28.17;15.73;;;10.90;99.90;;;;;;5074395;28;20358;-82
2021/03/05 02:47:29;;;;;;;30.63;14.73;;;11.00;99.90;;;;;;5076153;28;20032;-82
2021/03/05 02:49:55;;;;;;;24.95;14.32;;;10.90;99.90;;;;;;5076398;28;20021;-82
2021/03/05 02:52:22;;;;;;;29.85;15.10;;;11.00;99.90;;;;;;5094512;28;20505;-82
2021/03/05 02:54:53;;;;;;;31.17;15.13;;;11.00;99.90;;;;;;5083760;28;20021;-82
2021/03/05 02:57:22;;;;;;;35.22;15.30;;;11.00;99.90;;;;;;5094189;28;20055;-82
2021/03/05 02:59:49;;;;;;;31.10;15.50;;;11.00;99.90;;;;;;5094205;28;20040;-82
2021/03/05 03:02:15;;;;;;;32.85;14.40;;;11.00;99.90;;;;;;5075099;28;20023;-82
2021/03/05 03:04:43;;;;;;;26.17;15.60;;;11.00;99.90;;;;;;5093837;28;20016;-82
2021/03/05 03:07:11;;;;;;;25.83;15.50;;;11.10;99.90;;;;;;5079212;28;20031;-82
2021/03/05 03:09:39;;;;;;;30.98;15.02;;;10.90;99.90;;;;;;5090020;28;20020;-82
2021/03/05 03:12:07;;;;;;;27.83;15.23;;;10.90;99.90;;;;;;5094177;28;20039;-82
2021/03/05 03:14:33;;;;;;;25.52;15.43;;;10.90;99.90;;;;;;5090125;28;20066;-82
2021/03/05 03:17:01;;;;;;;29.35;14.68;;;10.70;99.90;;;;;;5073306;28;20032;-82
2021/03/05 03:19:27;;;;;;;27.95;15.23;;;10.70;99.90;;;;;;5073765;28;20051;-82
2021/03/05 03:21:53;;;;;;;27.42;15.10;;;10.80;99.90;;;;;;5073690;28;20024;-82
2021/03/05 03:24:19;;;;;;;26.38;14.98;;;10.70;99.90;;;;;;5073502;28;20068;-82
2021/03/05 03:26:45;;;;;;;28.60;14.70;;;10.70;99.90;;;;;;5073346;28;20050;-82
2021/03/05 03:29:11;;;;;;;32.67;15.68;;;10.70;99.90;;;;;;5092814;28;20543;-82
2021/03/05 03:31:39;;;;;;;26.50;14.70;;;10.70;99.90;;;;;;5093261;28;20032;-82
2021/03/05 03:34:08;;;;;;;27.70;15.15;;;10.80;99.90;;;;;;5090961;28;20078;-82
2021/03/05 03:36:37;;;;;;;27.17;15.25;;;10.80;99.90;;;;;;5093246;28;20085;-82
2021/03/05 03:39:08;;;;;;;27.67;14.88;;;10.80;99.90;;;;;;5093376;28;20016;-82
2021/03/05 03:41:36;;;;;;;22.95;14.40;;;10.80;99.90;;;;;;5093469;28;20488;-82
2021/03/05 03:44:07;;;;;;;30.65;14.38;;;10.70;99.90;;;;;;5093151;28;20032;-82
2021/03/05 03:46:34;;;;;;;28.02;15.27;;;10.70;99.90;;;;;;5092372;28;20036;-82
2021/03/05 03:49:12;;;;;;;29.15;15.57;;;10.80;99.90;;;;;;5092348;28;20024;-82
2021/03/05 03:51:43;;;;;;;32.25;15.63;;;10.80;99.90;;;;;;5075767;28;20039;-82
2021/03/05 03:54:13;;;;;;;32.55;15.57;;;10.70;99.90;;;;;;5073032;28;20055;-82
2021/03/05 03:56:42;;;;;;;25.42;14.35;;;10.70;99.90;;;;;;5072943;28;20025;-82
2021/03/05 03:59:11;;;;;;;27.40;15.27;;;10.80;99.90;;;;;;5072705;28;20054;-82
2021/03/05 04:01:38;;;;;;;30.85;15.77;;;10.70;99.90;;;;;;5072865;28;20111;-82
2021/03/05 04:04:06;;;;;;;24.92;14.95;;;10.70;99.90;;;;;;5072569;28;20508;-82
2021/03/05 04:06:33;;;;;;;24.27;14.75;;;10.60;99.90;;;;;;5072777;28;20032;-82
2021/03/05 04:09:00;;;;;;;30.25;15.43;;;10.50;99.90;;;;;;5072728;28;20423;-81
2021/03/05 04:11:26;;;;;;;29.65;15.25;;;10.50;99.90;;;;;;5072644;28;20024;-81
2021/03/05 04:13:52;;;;;;;29.35;15.23;;;10.50;99.90;;;;;;5072143;28;20048;-81
2021/03/05 04:16:18;;;;;;;29.55;15.30;;;10.40;99.90;;;;;;5072541;28;20060;-81
2021/03/05 04:18:43;;;;;;;26.80;15.23;;;10.30;99.90;;;;;;5090172;28;20055;-81
2021/03/05 04:21:27;;;;;;;28.10;15.20;;;10.30;99.90;;;;;;5092117;28;20026;-82
2021/03/05 04:23:53;;;;;;;29.48;15.55;;;10.20;99.90;;;;;;5055445;28;20034;-82
2021/03/05 04:26:19;;;;;;;24.55;15.20;;;10.20;99.90;;;;;;5092691;28;20028;-82
2021/03/05 04:28:44;;;;;;;30.02;15.77;;;10.20;99.90;;;;;;5091807;28;20031;-82
2021/03/05 04:31:10;;;;;;;28.05;15.20;;;10.20;99.90;;;;;;5074277;28;20089;-82
2021/03/05 04:33:36;;;;;;;29.98;15.45;;;10.20;99.90;;;;;;5090438;28;20092;-82
2021/03/05 04:36:03;;;;;;;27.17;15.30;;;10.20;99.90;;;;;;5092444;28;20051;-82
2021/03/05 04:38:29;;;;;;;31.95;15.73;;;10.30;99.90;;;;;;5092573;28;20046;-82
2021/03/05 04:40:55;;;;;;;34.75;17.13;;;10.20;99.90;;;;;;5082014;28;20031;-82
2021/03/05 04:43:20;;;;;;;30.85;15.68;;;10.20;99.90;;;;;;5072218;28;20496;-82
2021/03/05 04:45:46;;;;;;;33.45;15.77;;;10.20;99.90;;;;;;5072201;28;20115;-82
2021/03/05 04:48:12;;;;;;;25.10;16.08;;;10.20;99.90;;;;;;5072165;28;20017;-82
2021/03/05 04:50:38;;;;;;;31.67;16.70;;;10.10;99.90;;;;;;5072288;28;20035;-82
2021/03/05 04:53:04;;;;;;;27.83;16.67;;;9.90;99.90;;;;;;5072130;28;20384;-82
2021/03/05 04:55:30;;;;;;;32.13;16.55;;;10.00;99.90;;;;;;5089802;28;20024;-82
2021/03/05 04:57:56;;;;;;;27.73;17.33;;;10.10;99.90;;;;;;5092053;28;20016;-82
2021/03/05 05:00:22;;;;;;;34.15;17.70;;;10.10;99.90;;;;;;5092640;28;20040;-82
2021/03/05 05:02:47;;;;;;;28.23;17.48;;;10.10;99.90;;;;;;5092011;28;20094;-82
2021/03/05 05:05:14;;;;;;;30.10;17.48;;;10.20;99.90;;;;;;5092467;28;20131;-82
2021/03/05 05:07:39;;;;;;;34.90;17.05;;;10.30;99.90;;;;;;5092112;28;20072;-82
2021/03/05 05:10:06;;;;;;;34.53;17.98;;;10.30;99.90;;;;;;5091350;28;20032;-82
2021/03/05 05:12:32;;;;;;;29.35;17.58;;;10.30;99.90;;;;;;5091707;28;20012;-82
2021/03/05 05:14:57;;;;;;;33.15;18.15;;;10.40;99.90;;;;;;5091681;28;20034;-82
2021/03/05 05:17:23;;;;;;;33.95;19.90;;;10.40;99.90;;;;;;5092051;28;20025;-82
2021/03/05 05:19:48;;;;;;;32.97;18.73;;;10.40;99.90;;;;;;5091562;28;20031;-82
2021/03/05 05:22:14;;;;;;;32.35;17.15;;;10.30;99.90;;;;;;5092161;28;20399;-82
2021/03/05 05:24:40;;;;;;;31.38;19.55;;;10.30;99.90;;;;;;5091481;28;20017;-82
2021/03/05 05:27:06;;;;;;;33.03;19.63;;;10.20;99.90;;;;;;5091473;28;20016;-82
2021/03/05 05:29:31;;;;;;;38.20;19.17;;;10.40;99.90;;;;;;5091197;28;20430;-82
2021/03/05 05:31:57;;;;;;;32.53;18.48;;;10.40;99.90;;;;;;5092234;28;20426;-82
2021/03/05 05:34:23;;;;;;;32.80;19.13;;;10.30;99.90;;;;;;5095233;28;20537;-82
2021/03/05 05:36:48;;;;;;;28.52;19.08;;;10.30;99.90;;;;;;5095870;28;20027;-82
2021/03/05 05:39:15;;;;;;;32.22;18.52;;;10.40;99.90;;;;;;5095620;28;20028;-82
2021/03/05 05:41:41;;;;;;;37.22;19.48;;;10.40;99.90;;;;;;5095462;28;20349;-82
2021/03/05 05:44:07;;;;;;;34.30;20.05;;;10.40;99.90;;;;;;5095227;28;20059;-82
2021/03/05 05:46:34;;;;;;;34.28;19.25;;;10.30;99.90;;;;;;5094889;28;20024;-82
2021/03/05 05:49:00;;;;;;;32.78;19.17;;;10.30;99.90;;;;;;5095494;28;20084;-82
2021/03/05 05:51:32;;;;;;;36.92;20.63;;;10.30;99.90;;;;;;5081428;28;20021;-82
2021/03/05 05:54:02;;;;;;;28.20;19.50;;;10.30;99.90;;;;;;5084095;28;20016;-82
2021/03/05 05:56:30;;;;;;;34.25;18.90;;;10.20;99.90;;;;;;5089048;28;20012;-82
2021/03/05 05:58:55;;;;;;;37.53;19.58;;;10.20;99.90;;;;;;5075067;28;20106;-82
2021/03/05 06:01:21;;;;;;;35.38;19.90;;;10.10;99.90;;;;;;5078428;28;20166;-82
2021/03/05 06:03:46;;;;;;;31.25;19.50;;;10.10;99.90;;;;;;5094861;28;20055;-81
2021/03/05 06:06:12;;;;;;;31.90;19.15;;;10.20;99.90;;;;;;5095027;28;20091;-82
2021/03/05 06:08:38;;;;;;;30.88;19.30;;;10.10;99.90;;;;;;5094558;28;20038;-82
2021/03/05 06:11:03;;;;;;;29.63;19.02;;;10.20;99.90;;;;;;5095147;28;20028;-81
2021/03/05 06:13:29;;;;;;;33.08;20.38;;;10.00;99.90;;;;;;5095122;28;20364;-81
2021/03/05 06:16:11;;;;;;;35.78;20.55;;;10.00;99.90;;;;;;5095212;28;20024;-82
2021/03/05 06:18:37;;;;;;;34.20;19.92;;;10.00;99.90;;;;;;5095307;28;20024;-81
2021/03/05 06:21:02;;;;;;;36.00;20.17;;;10.10;99.90;;;;;;5094887;28;20027;-81
2021/03/05 06:23:28;;;;;;;32.20;19.42;;;10.00;99.90;;;;;;5094302;28;20111;-81
2021/03/05 06:26:01;;;;;;;37.28;20.73;;;10.10;99.90;;;;;;5095037;28;20073;-81
2021/03/05 06:28:27;;;;;;;30.77;20.25;;;10.10;99.90;;;;;;5087246;28;20033;-82
2021/03/05 06:30:53;;;;;;;33.85;20.40;;;10.00;99.90;;;;;;5065547;28;20387;-81
2021/03/05 06:33:32;;;;;;;31.85;20.27;;;10.10;99.90;;;;;;5093894;28;20085;-81
2021/03/05 06:36:22;;;;;;;32.22;21.05;;;9.90;99.90;;;;;;5094362;28;20108;-82
2021/03/05 06:38:48;;;;;;;34.00;20.60;;;10.00;99.90;;;;;;5094065;28;20039;-81
2021/03/05 06:41:27;;;;;;;32.85;21.05;;;10.00;99.90;;;;;;5094516;28;20028;-82
2021/03/05 06:43:58;;;;;;;34.25;20.88;;;9.90;99.90;;;;;;5093962;28;20081;-82
2021/03/05 06:46:38;;;;;;;32.10;20.33;;;10.00;99.90;;;;;;5094346;28;20032;-83
2021/03/05 06:49:16;;;;;;;30.10;19.98;;;10.10;99.90;;;;;;5087253;28;20103;-82
2021/03/05 06:51:50;;;;;;;30.23;19.38;;;10.20;99.90;;;;;;5083277;28;20119;-81
2021/03/05 06:54:15;;;;;;;28.77;20.02;;;10.10;99.90;;;;;;5084389;28;20476;-82
2021/03/05 06:56:46;;;;;;;28.27;19.90;;;10.10;99.90;;;;;;5076910;28;20017;-82
2021/03/05 06:59:20;;;;;;;32.03;19.95;;;10.20;99.90;;;;;;5074568;28;20016;-82
2021/03/05 07:01:50;;;;;;;35.30;21.67;;;10.30;99.90;;;;;;5090156;28;20024;-82
2021/03/05 07:04:27;;;;;;;33.83;21.33;;;10.40;99.90;;;;;;5075187;28;20075;-82
2021/03/05 07:07:06;;;;;;;30.20;20.17;;;10.40;99.90;;;;;;5079108;28;20024;-82
2021/03/05 07:09:37;;;;;;;34.70;20.45;;;10.30;99.90;;;;;;5078691;28;20044;-82
2021/03/05 07:12:15;;;;;;;34.38;21.60;;;10.40;99.90;;;;;;5091067;28;20024;-82
2021/03/05 07:14:46;;;;;;;30.85;20.13;;;10.40;99.90;;;;;;5088495;28;20020;-82
2021/03/05 07:17:12;;;;;;;32.00;21.77;;;10.30;99.90;;;;;;5091255;28;20031;-81
2021/03/05 07:19:39;;;;;;;31.77;21.55;;;10.30;99.90;;;;;;5063751;28;20111;-81
2021/03/05 07:22:06;;;;;;;32.70;21.52;;;10.50;99.90;;;;;;5080180;28;20028;-81
2021/03/05 07:24:33;;;;;;;32.55;21.73;;;10.70;99.90;;;;;;5081043;28;20028;-81
2021/03/05 07:27:02;;;;;;;36.22;22.05;;;10.70;99.90;;;;;;5089859;28;20023;-81
2021/03/05 07:29:44;;;;;;;31.95;21.30;;;10.50;99.90;;;;;;5088303;28;20116;-81
2021/03/05 07:32:21;;;;;;;39.33;21.80;;;10.50;99.90;;;;;;5074536;28;20066;-81
2021/03/05 07:34:57;;;;;;;34.08;21.77;;;10.40;99.90;;;;;;5076145;28;20035;-81
2021/03/05 07:37:39;;;;;;;35.78;22.08;;;10.60;99.90;;;;;;5083533;28;20030;-81
2021/03/05 07:40:08;;;;;;;34.90;21.92;;;10.50;99.90;;;;;;5077297;28;20016;-81
2021/03/05 07:42:34;;;;;;;36.80;21.92;;;10.60;99.90;;;;;;5075727;28;20024;-81
2021/03/05 07:45:01;;;;;;;33.83;21.92;;;10.60;99.90;;;;;;5077737;28;20021;-81
2021/03/05 07:47:31;;;;;;;33.05;22.27;;;10.70;99.90;;;;;;5083358;28;20023;-81
2021/03/05 07:50:01;;;;;;;36.42;21.85;;;10.60;99.90;;;;;;5092628;28;20020;-82
2021/03/05 07:52:26;;;;;;;33.40;22.35;;;10.70;99.90;;;;;;5090497;28;20047;-82
2021/03/05 07:54:52;;;;;;;35.30;23.00;;;10.60;99.90;;;;;;5072263;28;20059;-82
2021/03/05 07:57:24;;;;;;;39.25;24.35;;;10.60;99.90;;;;;;5071724;28;20112;-82
2021/03/05 07:59:51;;;;;;;40.65;24.23;;;10.60;99.90;;;;;;5072177;28;20017;-82
2021/03/05 08:02:24;;;;;;;34.35;22.77;;;10.70;99.90;;;;;;5072058;28;20048;-82
2021/03/05 08:04:55;;;;;;;33.90;23.15;;;10.90;99.90;;;;;;5072394;28;20028;-82
2021/03/05 08:07:25;;;;;;;40.08;23.23;;;10.90;99.90;;;;;;5072882;28;20543;-81
2021/03/05 08:09:51;;;;;;;32.80;22.38;;;11.10;99.90;;;;;;5072770;28;20032;-85
2021/03/05 08:12:33;;;;;;;40.70;23.75;;;11.00;99.90;;;;;;5072659;28;20039;-82
2021/03/05 08:15:08;;;;;;;36.08;22.92;;;10.90;99.90;;;;;;5072729;28;20028;-81
2021/03/05 08:17:38;;;;;;;33.88;22.70;;;10.90;99.90;;;;;;5072378;28;20028;-81
2021/03/05 08:20:09;;;;;;;30.00;21.10;;;10.60;99.90;;;;;;5072304;28;20023;-81
2021/03/05 08:23:01;;;;;;;31.23;23.02;;;10.70;99.90;;;;;;5078974;28;20017;-81
2021/03/05 08:25:31;;;;;;;31.13;21.17;;;10.90;99.90;;;;;;5074469;28;20373;-81
2021/03/05 08:27:59;;;;;;;37.22;22.45;;;10.90;99.90;;;;;;5092800;28;20471;-81
2021/03/05 08:30:33;;;;;;;30.10;21.50;;;10.80;99.90;;;;;;5092387;28;20020;-81
2021/03/05 08:33:00;;;;;;;31.35;21.98;;;10.50;99.90;;;;;;5092455;28;20027;-81
2021/03/05 08:35:29;;;;;;;33.80;22.67;;;10.50;99.90;;;;;;5092209;28;20103;-81
2021/03/05 08:38:04;;;;;;;36.50;23.33;;;10.50;99.90;;;;;;5092322;28;20024;-81
2021/03/05 08:40:44;;;;;;;37.90;22.42;;;10.70;99.90;;;;;;5092468;28;20491;-81
2021/03/05 08:43:10;;;;;;;32.42;23.02;;;11.00;99.90;;;;;;5092553;28;20028;-81
2021/03/05 08:45:54;;;;;;;47.00;27.80;;;11.10;99.90;;;;;;5092301;28;20035;-81
2021/03/05 08:48:43;;;;;;;37.58;27.73;;;11.20;99.90;;;;;;5091944;28;20024;-81
2021/03/05 08:51:20;;;;;;;32.92;22.65;;;10.90;99.90;;;;;;5092511;28;20027;-81
2021/03/05 08:53:52;;;;;;;30.25;20.45;;;10.70;99.90;;;;;;5092431;28;20024;-81
2021/03/05 08:56:25;;;;;;;33.60;21.88;;;11.00;99.90;;;;;;5092322;28;20070;-81
2021/03/05 08:59:01;;;;;;;33.65;21.88;;;11.10;99.90;;;;;;5092283;28;20534;-81
2021/03/05 09:01:30;;;;;;;32.85;22.02;;;11.40;99.90;;;;;;5092155;28;20031;-82
2021/03/05 09:04:16;;;;;;;30.02;21.85;;;11.40;99.90;;;;;;5091646;28;20048;-82
2021/03/05 09:06:58;;;;;;;38.13;22.70;;;11.70;99.90;;;;;;5092217;28;20064;-82
2021/03/05 09:09:30;;;;;;;28.67;21.60;;;11.90;99.90;;;;;;5096450;28;20028;-85
2021/03/05 09:12:09;;;;;;;31.67;21.77;;;12.00;99.90;;;;;;5096338;28;20068;-82
2021/03/05 09:14:35;;;;;;;30.05;20.63;;;11.90;99.90;;;;;;5096187;28;20059;-81
2021/03/05 09:17:03;;;;;;;29.70;20.23;;;12.30;99.90;;;;;;5096086;28;20051;-81
2021/03/05 09:19:33;;;;;;;31.10;20.08;;;13.00;99.90;;;;;;5095957;28;20077;-81
2021/03/05 09:22:08;;;;;;;29.02;19.35;;;12.70;99.90;;;;;;5096401;28;20054;-82
2021/03/05 09:24:49;;;;;;;25.83;19.40;;;12.40;99.90;;;;;;5096166;28;20024;-81
2021/03/05 09:27:20;;;;;;;29.42;19.88;;;12.10;99.90;;;;;;5096668;28;20077;-81
2021/03/05 09:29:46;;;;;;;26.30;19.63;;;11.90;99.90;;;;;;5096586;28;20086;-81
2021/03/05 09:32:11;;;;;;;25.55;18.42;;;12.10;99.90;;;;;;5096293;28;20024;-81
2021/03/05 09:34:54;;;;;;;26.75;18.67;;;15.30;99.90;;;;;;5096577;28;20403;-81
2021/03/05 09:37:22;;;;;;;26.33;19.83;;;15.70;99.90;;;;;;5096129;28;20149;-81
2021/03/05 09:39:50;;;;;;;28.13;18.63;;;15.00;99.90;;;;;;5095702;28;20503;-81
2021/03/05 09:42:16;;;;;;;26.80;19.27;;;15.20;99.90;;;;;;5095887;28;20073;-81
2021/03/05 09:44:46;;;;;;;23.10;18.67;;;15.10;99.90;;;;;;5095721;28;20103;-81
2021/03/05 09:47:12;;;;;;;24.73;18.05;;;15.50;99.90;;;;;;5095383;28;20028;-81
2021/03/05 09:49:39;;;;;;;27.92;18.10;;;15.40;99.90;;;;;;5095522;28;20024;-81
2021/03/05 09:52:05;;;;;;;24.25;17.73;;;14.70;99.90;;;;;;5095673;28;20031;-81
2021/03/05 09:54:39;;;;;;;23.55;16.63;;;14.70;99.90;;;;;;5095726;28;20024;-81
2021/03/05 09:57:06;;;;;;;26.00;18.60;;;16.10;99.90;;;;;;5095079;28;20031;-81
2021/03/05 09:59:43;;;;;;;26.60;18.27;;;14.90;99.90;;;;;;5095947;28;20499;-81
2021/03/05 10:02:08;;;;;;;27.63;18.55;;;16.30;99.90;;;;;;5094967;28;20485;-81
2021/03/05 10:04:48;;;;;;;27.13;19.77;;;15.80;99.90;;;;;;5095519;28;20055;-81
2021/03/05 10:07:14;;;;;;;28.83;20.30;;;15.90;99.90;;;;;;5095568;28;20441;-81
2021/03/05 10:09:40;;;;;;;25.63;19.13;;;16.20;99.90;;;;;;5095434;28;20024;-81
2021/03/05 10:12:06;;;;;;;23.40;18.10;;;15.50;99.90;;;;;;5095191;28;20419;-81
2021/03/05 10:14:35;;;;;;;24.13;18.48;;;21.10;99.90;;;;;;5095214;28;20016;-81
2021/03/05 10:17:17;;;;;;;24.30;18.98;;;19.90;99.90;;;;;;5094835;28;20422;-81
2021/03/05 10:19:43;;;;;;;25.02;17.90;;;17.40;99.90;;;;;;5093747;28;20514;-81
2021/03/05 10:22:11;;;;;;;25.70;18.75;;;17.50;99.90;;;;;;5095053;28;20475;-81
2021/03/05 10:24:37;;;;;;;25.50;19.52;;;17.00;99.90;;;;;;5095122;28;20064;-81
2021/03/05 10:27:11;;;;;;;24.65;17.83;;;16.10;99.90;;;;;;5094773;28;20498;-81
2021/03/05 10:29:47;;;;;;;24.73;17.05;;;15.90;99.90;;;;;;5094653;28;20085;-81
2021/03/05 10:32:47;;;;;;;20.90;17.50;;;17.70;99.90;;;;;;5076598;28;20028;-81
2021/03/05 10:35:16;;;;;;;23.38;17.60;;;20.80;99.90;;;;;;5044466;28;20028;-81
2021/03/05 10:37:47;;;;;;;23.80;16.90;;;22.80;99.90;;;;;;5074211;28;20054;-81
2021/03/05 10:40:14;;;;;;;23.50;17.55;;;23.30;99.90;;;;;;5074341;28;20023;-81
2021/03/05 10:42:41;;;;;;;25.92;17.95;;;22.20;99.90;;;;;;5074430;28;20050;-81
2021/03/05 10:45:07;;;;;;;23.58;18.52;;;23.00;99.90;;;;;;5074109;28;20095;-82
2021/03/05 10:47:34;;;;;;;25.30;18.20;;;19.00;99.90;;;;;;5074364;28;20039;-82
2021/03/05 10:50:00;;;;;;;22.45;17.10;;;17.80;99.90;;;;;;5074145;28;20017;-82
2021/03/05 10:52:27;;;;;;;22.67;16.20;;;23.80;99.90;;;;;;5074176;28;20142;-82
2021/03/05 10:54:53;;;;;;;23.42;17.95;;;27.90;99.90;;;;;;5074250;28;20476;-82
2021/03/05 10:57:20;;;;;;;19.38;16.05;;;29.10;99.90;;;;;;5074081;28;20103;-82
2021/03/05 10:59:47;;;;;;;18.65;16.00;;;29.70;99.90;;;;;;5073886;28;20051;-82
2021/03/05 11:02:13;;;;;;;21.05;16.90;;;28.00;99.90;;;;;;5073669;28;20029;-82
2021/03/05 11:04:39;;;;;;;22.20;17.48;;;27.70;99.90;;;;;;5074082;28;20021;-82
2021/03/05 11:07:05;;;;;;;19.20;15.60;;;28.50;99.90;;;;;;5092685;28;20369;-82
2021/03/05 11:09:31;;;;;;;18.70;15.48;;;29.70;99.90;;;;;;5084190;28;20191;-82
2021/03/05 11:11:58;;;;;;;19.15;15.57;;;30.30;99.90;;;;;;5073579;28;20074;-82
2021/03/05 11:14:24;;;;;;;20.15;15.15;;;29.60;99.90;;;;;;5072692;28;20438;-82
2021/03/05 11:16:50;;;;;;;18.83;14.70;;;27.80;99.90;;;;;;5071964;28;20035;-82
2021/03/05 11:19:17;;;;;;;17.88;15.52;;;29.00;99.90;;;;;;5073618;28;20074;-82
2021/03/05 11:21:43;;;;;;;16.58;14.75;;;29.90;99.90;;;;;;5073363;28;20024;-82
2021/03/05 11:24:10;;;;;;;19.40;15.45;;;30.30;99.90;;;;;;5073370;28;20476;-82
2021/03/05 11:26:35;;;;;;;17.63;15.70;;;30.10;99.90;;;;;;5073463;28;20025;-82
2021/03/05 11:29:02;;;;;;;17.30;15.57;;;29.40;99.90;;;;;;5073003;28;20035;-82
2021/03/05 11:31:28;;;;;;;17.58;15.63;;;26.50;99.90;;;;;;5055056;28;20447;-82
2021/03/05 11:33:53;;;;;;;15.82;14.30;;;29.20;99.90;;;;;;5073195;28;20024;-82
2021/03/05 11:36:20;;;;;;;15.32;13.80;;;30.30;99.90;;;;;;5073156;28;20099;-82
2021/03/05 11:38:47;;;;;;;17.92;14.07;;;27.80;99.90;;;;;;5073136;28;20023;-82
2021/03/05 11:41:13;;;;;;;16.80;14.93;;;29.30;99.90;;;;;;5073345;28;20024;-82
2021/03/05 11:43:41;;;;;;;18.35;15.75;;;29.30;99.90;;;;;;5073035;28;20029;-81
2021/03/05 11:46:07;;;;;;;19.45;17.30;;;31.20;99.90;;;;;;5072961;28;20033;-80
2021/03/05 11:48:33;;;;;;;17.45;15.60;;;32.10;99.90;;;;;;5073329;28;20131;-80
2021/03/05 11:50:58;;;;;;;17.55;15.75;;;24.50;99.90;;;;;;5072803;28;20104;-80
2021/03/05 11:53:24;;;;;;;17.80;15.93;;;28.60;99.90;;;;;;5073238;28;20464;-80
2021/03/05 11:55:50;;;;;;;19.00;17.00;;;31.60;99.90;;;;;;5072877;28;20023;-80
2021/03/05 11:58:16;;;;;;;18.75;16.85;;;29.50;99.90;;;;;;5072429;28;20059;-80
2021/03/05 12:00:42;;;;;;;18.30;15.98;;;30.50;99.90;;;;;;5072394;28;20044;-80
2021/03/05 12:03:07;;;;;;;17.83;15.95;;;24.90;99.90;;;;;;5072324;28;20047;-80
2021/03/05 12:05:33;;;;;;;21.13;17.55;;;25.20;99.90;;;;;;5072846;28;20081;-80
2021/03/05 12:07:59;;;;;;;18.50;16.40;;;26.10;99.90;;;;;;5072748;28;20024;-80
2021/03/05 12:10:25;;;;;;;19.90;17.20;;;26.70;99.90;;;;;;5072657;28;20033;-80
2021/03/05 12:12:50;;;;;;;18.45;16.63;;;27.10;99.90;;;;;;5072324;28;20020;-80
2021/03/05 12:15:17;;;;;;;20.05;17.38;;;26.50;99.90;;;;;;5072824;28;20032;-80
2021/03/05 12:17:43;;;;;;;22.23;20.02;;;26.20;99.90;;;;;;5072514;28;20100;-80
2021/03/05 12:20:10;;;;;;;21.85;19.08;;;25.90;99.90;;;;;;5072397;28;20021;-80
2021/03/05 12:22:35;;;;;;;18.85;16.88;;;26.10;99.90;;;;;;5072689;28;20017;-80
2021/03/05 12:25:01;;;;;;;20.38;18.27;;;25.80;99.90;;;;;;5072337;28;20090;-80
2021/03/05 12:27:27;;;;;;;20.70;18.25;;;23.00;99.90;;;;;;5072192;28;20001;-80
2021/03/05 12:29:52;;;;;;;21.27;18.25;;;25.40;99.90;;;;;;5072597;28;20047;-80
2021/03/05 12:32:18;;;;;;;20.60;17.85;;;26.10;99.90;;;;;;5072442;28;20067;-80
2021/03/05 12:34:44;;;;;;;18.98;16.35;;;25.70;99.90;;;;;;5072157;28;20087;-80
2021/03/05 12:37:09;;;;;;;21.20;17.83;;;26.40;99.90;;;;;;5072471;28;20021;-80